Time;durP1;ratioP1;P1;durP2;ratioP2;P2;SDS_P1;SDS_P2;PMS_P1;PMS_P2;Temp;Humidity;BMP_temperature;BMP_pressure;BME280_temperature;BME280_humidity;BME280_pressure;Samples;Min_cycle;Max_cycle;Signal;HPM_P1;HPM_P2
2024/01/13 00:01:06;;;;;;;7.10;2.37;;;;;;;-16.49;61.94;99672.72;4913569;29;20166;-70
2024/01/13 00:03:33;;;;;;;4.07;1.73;;;;;;;-16.54;61.53;99651.47;4931280;29;20043;-71
2024/01/13 00:06:02;;;;;;;6.27;2.33;;;;;;;-16.36;60.75;99683.09;4903604;29;20043;-71
2024/01/13 00:08:28;;;;;;;3.40;1.73;;;;;;;-16.97;60.55;99591.88;4889050;29;20043;-72
2024/01/13 00:11:07;;;;;;;5.93;1.50;;;;;;;-16.61;60.44;99659.06;4915050;29;20043;-71
2024/01/13 00:13:36;;;;;;;;;;;;;;;-16.47;60.95;99688.69;4933058;29;20043;-70
2024/01/13 00:16:02;;;;;;;6.10;2.13;;;;;;;-16.41;61.85;99691.75;4918674;29;19982;-70
2024/01/13 00:18:31;;;;;;;7.00;2.30;;;;;;;-16.64;60.97;99656.28;4915114;29;20047;-71
2024/01/13 00:20:57;;;;;;;7.20;1.80;;;;;;;-16.49;60.88;99680.19;4899101;29;20502;-71
2024/01/13 00:23:23;;;;;;;5.83;2.27;;;;;;;-16.71;60.73;99648.25;4915238;29;20055;-72
2024/01/13 00:25:49;;;;;;;8.53;2.37;;;;;;;-16.49;60.95;99697.63;4915272;29;20040;-70
2024/01/13 00:28:15;;;;;;;7.70;2.67;;;;;;;-16.90;61.54;99629.78;4914025;29;20055;-71
2024/01/13 00:30:43;;;;;;;8.00;2.67;;;;;;;-16.61;61.65;99676.50;4931255;29;20040;-71
2024/01/13 00:33:16;;;;;;;6.10;2.10;;;;;;;-16.84;61.27;99628.75;4900638;29;20396;-70
2024/01/13 00:35:42;;;;;;;5.30;2.60;;;;;;;-16.41;61.43;99703.34;4902471;29;20047;-70
2024/01/13 00:38:08;;;;;;;9.07;2.93;;;;;;;-16.74;60.69;99685.31;4902733;29;20047;-73
2024/01/13 00:40:33;;;;;;;5.30;2.37;;;;;;;-16.69;61.45;99706.56;4915264;29;20036;-70
2024/01/13 00:43:00;;;;;;;4.73;1.63;;;;;;;-16.60;61.43;99720.63;4902876;29;20100;-69
2024/01/13 00:45:26;;;;;;;3.57;1.60;;;;;;;-16.56;60.60;99725.16;4919425;29;20110;-71
2024/01/13 00:47:52;;;;;;;4.20;1.97;;;;;;;-16.74;60.47;99707.72;4906775;29;20071;-70
2024/01/13 00:50:22;;;;;;;4.27;1.80;;;;;;;-16.72;60.54;99702.88;4921709;29;20075;-71
2024/01/13 00:52:48;;;;;;;8.57;1.90;;;;;;;-16.58;61.05;99739.09;4919629;29;20051;-71
2024/01/13 00:55:19;;;;;;;5.77;2.53;;;;;;;-16.83;61.54;99694.34;4936797;29;20113;-70
2024/01/13 00:57:45;;;;;;;3.03;1.70;;;;;;;-16.68;60.89;99723.28;4907547;29;20046;-68
2024/01/13 01:00:12;;;;;;;8.33;2.23;;;;;;;-16.88;60.92;99686.44;4919921;29;20103;-71
2024/01/13 01:02:38;;;;;;;7.47;2.07;;;;;;;-16.66;60.77;99724.25;4921801;29;20407;-71
2024/01/13 01:05:04;;;;;;;12.63;2.23;;;;;;;-16.78;60.60;99725.56;4903465;29;20035;-71
2024/01/13 01:07:32;;;;;;;13.43;2.63;;;;;;;-16.91;60.98;99706.06;4903784;29;20532;-71
2024/01/13 01:10:04;;;;;;;3.73;2.40;;;;;;;-16.68;61.33;99750.66;4908926;29;20453;-70
2024/01/13 01:12:31;;;;;;;10.97;3.70;;;;;;;-17.06;61.28;99689.69;4918832;29;20111;-70
2024/01/13 01:14:59;;;;;;;10.03;2.87;;;;;;;-16.68;61.24;99752.25;4906232;29;20051;-70
2024/01/13 01:17:32;;;;;;;4.45;2.17;;;;;;;-16.88;60.98;99720.44;4905795;29;20055;-70
2024/01/13 01:19:58;;;;;;;5.73;1.87;;;;;;;-16.81;61.36;99741.13;4915415;29;20051;-69
2024/01/13 01:22:27;;;;;;;5.80;2.57;;;;;;;-17.08;60.41;99709.41;4919309;29;20051;-69
2024/01/13 01:24:53;;;;;;;6.30;2.40;;;;;;;-16.87;60.67;99747.06;4905681;29;20410;-69
2024/01/13 01:27:28;;;;;;;5.73;1.80;;;;;;;-17.12;60.09;99727.31;4920101;29;20903;-69
2024/01/13 01:29:55;;;;;;;4.93;2.20;;;;;;;-16.97;60.94;99743.75;4922166;29;20515;-69
2024/01/13 01:32:23;;;;;;;8.87;3.20;;;;;;;-16.94;60.15;99748.09;4897683;29;20051;-70
2024/01/13 01:34:52;;;;;;;6.87;2.40;;;;;;;-17.00;60.55;99770.81;4906814;29;20102;-70
2024/01/13 01:37:18;;;;;;;8.33;2.73;;;;;;;-17.32;61.13;99717.84;4904214;29;20086;-70
2024/01/13 01:39:44;;;;;;;8.37;2.97;;;;;;;-17.19;60.12;99737.38;4902608;29;20067;-70
2024/01/13 01:42:10;;;;;;;12.53;4.13;;;;;;;-17.20;60.16;99753.91;4906194;29;20055;-69
2024/01/13 01:44:36;;;;;;;7.20;3.53;;;;;;;-17.05;61.44;99773.59;4918764;29;20524;-69
2024/01/13 01:47:04;;;;;;;14.60;3.40;;;;;;;-17.20;61.23;99738.97;4917960;29;20138;-69
2024/01/13 01:49:30;;;;;;;11.47;4.10;;;;;;;-17.04;60.99;99767.88;4934016;29;20138;-70
2024/01/13 01:51:57;;;;;;;12.03;3.43;;;;;;;-17.21;61.42;99746.28;4890407;29;20047;-71
2024/01/13 01:54:23;;;;;;;10.00;3.63;;;;;;;-17.08;61.64;99780.75;4916746;29;20047;-69
2024/01/13 01:56:49;;;;;;;10.00;3.57;;;;;;;-17.14;60.81;99788.50;4903614;29;20039;-71
2024/01/13 01:59:15;;;;;;;5.97;3.67;;;;;;;-17.14;60.28;99773.56;4919086;29;20048;-70
2024/01/13 02:01:44;;;;;;;14.70;4.50;;;;;;;-17.18;61.25;99772.34;4933818;29;20046;-71
2024/01/13 02:04:11;;;;;;;9.93;4.07;;;;;;;-17.08;61.49;99783.25;4918144;29;20066;-69
2024/01/13 02:06:39;;;;;;;13.30;6.10;;;;;;;-17.35;60.87;99733.38;4911608;29;20075;-70
2024/01/13 02:09:09;;;;;;;10.87;5.13;;;;;;;-17.10;61.19;99778.13;4916492;29;20525;-70
2024/01/13 02:11:35;;;;;;;17.37;6.57;;;;;;;-17.31;60.21;99746.97;4917813;29;20035;-70
2024/01/13 02:14:01;;;;;;;31.70;6.20;;;;;;;-17.48;61.17;99737.81;4916691;29;20055;-70
2024/01/13 02:16:28;;;;;;;26.53;7.93;;;;;;;-17.30;60.52;99771.13;4921896;29;20059;-70
2024/01/13 02:18:54;;;;;;;27.37;7.50;;;;;;;-17.45;61.10;99738.13;4902893;29;20066;-70
2024/01/13 02:21:21;;;;;;;22.57;7.67;;;;;;;-17.67;61.21;99708.63;4920776;29;20059;-72
2024/01/13 02:23:47;;;;;;;21.33;6.93;;;;;;;-17.20;61.38;99788.75;4904657;29;20085;-73
2024/01/13 02:26:14;;;;;;;27.00;9.17;;;;;;;-17.25;61.47;99779.06;4917268;29;20430;-71
2024/01/13 02:28:40;;;;;;;30.50;9.20;;;;;;;-17.45;60.60;99766.41;4905261;29;20759;-71
2024/01/13 02:31:07;;;;;;;20.37;7.87;;;;;;;-17.34;61.19;99794.84;4900868;29;20075;-72
2024/01/13 02:33:36;;;;;;;16.87;6.20;;;;;;;-17.58;60.74;99754.34;4901947;29;20207;-71
2024/01/13 02:36:06;;;;;;;19.13;6.67;;;;;;;-17.51;61.33;99772.34;4902919;29;20114;-71
2024/01/13 02:38:35;;;;;;;21.37;5.50;;;;;;;-17.58;60.62;99771.75;4916452;29;20044;-71
2024/01/13 02:41:01;;;;;;;8.87;3.93;;;;;;;-17.70;60.01;99777.94;4902601;29;20412;-71
2024/01/13 02:43:27;;;;;;;11.53;3.40;;;;;;;-17.80;61.29;99775.25;4914847;29;20056;-72
2024/01/13 02:45:55;;;;;;;11.10;4.60;;;;;;;-17.68;61.42;99796.38;4932316;29;20055;-70
2024/01/13 02:48:22;;;;;;;14.30;3.87;;;;;;;-18.08;61.29;99728.59;4912947;29;20095;-71
2024/01/13 02:50:57;;;;;;;15.70;5.20;;;;;;;-17.92;61.15;99742.56;4932594;29;20039;-71
2024/01/13 02:53:29;;;;;;;9.43;3.40;;;;;;;-17.70;61.07;99777.94;4900184;29;20132;-70
2024/01/13 02:55:55;;;;;;;;;;;;;;;-17.57;60.60;99810.81;4912827;29;20509;-70
2024/01/13 02:58:21;;;;;;;6.07;2.43;;;;;;;-17.58;60.54;99813.13;4931031;29;19923;-70
2024/01/13 03:00:50;;;;;;;5.67;2.47;;;;;;;-17.52;61.56;99811.28;4918125;29;20044;-71
2024/01/13 03:03:18;;;;;;;6.17;3.17;;;;;;;-17.57;60.76;99825.75;4894902;29;20044;-70
2024/01/13 03:05:47;;;;;;;6.15;2.38;;;;;;;-18.25;61.04;99708.59;4912312;29;20035;-70
2024/01/13 03:08:15;;;;;;;6.07;2.10;;;;;;;-17.44;61.17;99832.84;4929435;29;20048;-71
2024/01/13 03:10:41;;;;;;;6.83;3.50;;;;;;;-17.50;61.08;99821.38;4916123;29;20058;-70
2024/01/13 03:13:10;;;;;;;9.60;3.27;;;;;;;-17.50;60.65;99822.25;4929510;29;20150;-70
2024/01/13 03:15:42;;;;;;;4.13;2.00;;;;;;;-17.58;60.95;99831.44;4894158;29;20040;-71
2024/01/13 03:18:08;;;;;;;7.67;2.40;;;;;;;-17.69;61.18;99814.53;4928994;29;20051;-70
2024/01/13 03:20:35;;;;;;;7.07;2.37;;;;;;;-17.64;60.60;99820.84;4900933;29;20556;-71
2024/01/13 03:23:00;;;;;;;6.97;2.43;;;;;;;-17.65;60.74;99809.13;4900149;29;20044;-72
2024/01/13 03:25:39;;;;;;;30.90;13.20;;;;;;;-17.71;60.24;99840.84;4912565;29;20134;-70
2024/01/13 03:28:08;;;;;;;14.33;4.73;;;;;;;-17.93;61.45;99793.00;4913891;29;20043;-70
2024/01/13 03:30:37;;;;;;;6.80;2.77;;;;;;;-17.64;60.97;99834.88;4898968;29;20265;-70
2024/01/13 03:33:05;;;;;;;6.03;2.73;;;;;;;-17.53;60.52;99859.25;4916461;29;20067;-71
2024/01/13 03:35:31;;;;;;;6.87;2.10;;;;;;;-17.67;60.99;99837.94;4912365;29;20043;-71
2024/01/13 03:37:57;;;;;;;4.10;2.27;;;;;;;-17.68;61.19;99823.75;4899175;29;20055;-72
2024/01/13 03:40:23;;;;;;;4.07;1.73;;;;;;;-17.48;60.79;99848.19;4929238;29;20044;-71
2024/01/13 03:42:49;;;;;;;7.30;2.13;;;;;;;-17.54;60.22;99844.19;4929214;29;20059;-71
2024/01/13 03:45:19;;;;;;;8.90;2.23;;;;;;;-17.76;60.69;99814.63;4915497;29;20071;-71
2024/01/13 03:47:45;;;;;;;6.73;2.63;;;;;;;-17.68;61.35;99840.28;4913717;29;20138;-71
2024/01/13 03:50:15;;;;;;;5.80;1.67;;;;;;;-17.71;61.03;99828.41;4929907;29;20510;-71
2024/01/13 03:52:41;;;;;;;7.87;1.63;;;;;;;-17.91;60.18;99807.34;4896072;29;20054;-72
2024/01/13 03:55:08;;;;;;;4.23;1.73;;;;;;;-17.77;60.81;99820.34;4896295;29;20039;-72
2024/01/13 03:57:36;;;;;;;8.20;2.33;;;;;;;-17.47;60.79;99862.38;4913697;29;20046;-71
2024/01/13 04:00:03;;;;;;;9.93;2.50;;;;;;;-17.49;61.08;99858.84;4897474;29;20052;-71
2024/01/13 04:02:34;;;;;;;6.45;2.40;;;;;;;-18.11;60.60;99753.16;4912174;29;20048;-71
2024/01/13 04:05:00;;;;;;;4.87;2.07;;;;;;;-18.02;60.49;99770.59;4897526;29;20048;-70
2024/01/13 04:07:26;;;;;;;5.37;1.90;;;;;;;-17.63;60.51;99837.53;4910183;29;20050;-71
2024/01/13 04:09:52;;;;;;;3.47;2.27;;;;;;;-17.60;60.33;99850.28;4913403;29;20044;-70
2024/01/13 04:12:18;;;;;;;5.70;2.00;;;;;;;-17.75;60.21;99838.75;4912230;29;20047;-72
2024/01/13 04:14:45;;;;;;;6.97;2.43;;;;;;;-18.11;60.70;99790.44;4900386;29;20048;-71
2024/01/13 04:17:11;;;;;;;17.03;9.73;;;;;;;-17.73;61.14;99863.06;4898071;29;20518;-72
2024/01/13 04:19:37;;;;;;;6.10;3.87;;;;;;;-18.08;60.37;99837.94;4901467;29;20051;-71
2024/01/13 04:22:03;;;;;;;6.30;3.90;;;;;;;-18.22;60.54;99826.59;4881928;29;20415;-71
2024/01/13 04:24:29;;;;;;;9.83;3.87;;;;;;;-18.28;60.37;99858.25;4911839;29;20078;-70
2024/01/13 04:27:00;;;;;;;3.57;2.17;;;;;;;-18.22;60.63;99873.81;4926039;29;20044;-71
2024/01/13 04:29:26;;;;;;;10.10;2.33;;;;;;;-18.35;60.76;99879.06;4896515;29;20040;-72
2024/01/13 04:31:55;;;;;;;7.03;1.90;;;;;;;-18.56;59.93;99854.44;4915559;29;20538;-71
2024/01/13 04:34:21;;;;;;;3.97;2.37;;;;;;;-18.40;60.79;99881.75;4894835;29;20044;-71
2024/01/13 04:36:49;;;;;;;6.73;2.30;;;;;;;-18.64;60.85;99876.84;4912087;29;20039;-70
2024/01/13 04:39:15;;;;;;;8.40;3.10;;;;;;;-18.57;60.51;99890.78;4910744;29;20410;-73
2024/01/13 04:41:41;;;;;;;6.97;2.97;;;;;;;-18.70;60.55;99901.00;4890430;29;20103;-71
2024/01/13 04:44:08;;;;;;;8.27;2.67;;;;;;;-18.91;60.59;99879.75;4907065;29;20194;-71
2024/01/13 04:46:35;;;;;;;6.23;2.60;;;;;;;-19.01;59.37;99902.72;4912896;29;20147;-72
2024/01/13 04:49:01;;;;;;;6.57;2.90;;;;;;;-19.09;59.82;99901.00;4908671;29;20396;-70
2024/01/13 04:51:27;;;;;;;8.20;3.30;;;;;;;-19.03;60.27;99913.19;4911113;29;20468;-71
2024/01/13 04:53:53;;;;;;;6.07;2.83;;;;;;;-19.07;60.74;99911.97;4909664;29;20044;-71
2024/01/13 04:56:24;;;;;;;8.47;2.67;;;;;;;-19.35;60.70;99866.78;4888132;29;20182;-71
2024/01/13 04:58:51;;;;;;;5.60;2.97;;;;;;;-19.13;60.08;99914.66;4909253;29;20051;-73
2024/01/13 05:01:16;;;;;;;5.63;2.47;;;;;;;-19.52;59.72;99867.41;4909267;29;20036;-72
2024/01/13 05:03:43;;;;;;;4.73;1.93;;;;;;;-19.61;60.04;99864.78;4896362;29;20044;-72
2024/01/13 05:06:09;;;;;;;3.93;2.90;;;;;;;-19.43;60.90;99902.28;4910400;29;20036;-71
2024/01/13 05:08:38;;;;;;;8.47;4.33;;;;;;;-19.83;60.38;99830.91;4898088;29;20092;-72
2024/01/13 05:11:04;;;;;;;7.83;3.23;;;;;;;-19.51;59.71;99911.31;4909336;29;20048;-72
2024/01/13 05:13:30;;;;;;;4.07;2.00;;;;;;;-19.77;60.74;99889.50;4909252;29;20044;-72
2024/01/13 05:15:57;;;;;;;9.40;2.23;;;;;;;-20.16;60.38;99854.59;4910018;29;20095;-71
2024/01/13 05:18:23;;;;;;;7.40;2.60;;;;;;;-19.92;60.31;99920.00;4894961;29;20052;-71
2024/01/13 05:20:52;;;;;;;5.23;2.53;;;;;;;-19.82;60.35;99932.72;4910258;29;20143;-72
2024/01/13 05:23:19;;;;;;;5.93;1.83;;;;;;;-19.86;60.54;99923.16;4909130;29;20040;-71
2024/01/13 05:25:47;;;;;;;4.50;1.90;;;;;;;-20.13;60.34;99886.28;4908936;29;20051;-71
2024/01/13 05:28:13;;;;;;;8.30;1.57;;;;;;;-20.01;59.75;99915.81;4893710;29;20047;-70
2024/01/13 05:30:40;;;;;;;11.93;2.73;;;;;;;-19.91;59.95;99924.25;4894509;29;20131;-70
2024/01/13 05:33:06;;;;;;;4.40;1.83;;;;;;;-19.82;60.78;99936.75;4884709;29;20046;-70
2024/01/13 05:35:32;;;;;;;17.60;2.87;;;;;;;-19.93;59.92;99925.69;4911982;29;20522;-69
2024/01/13 05:37:58;;;;;;;9.37;2.87;;;;;;;-19.88;60.51;99927.09;4897084;29;20044;-70
2024/01/13 05:40:24;;;;;;;4.37;3.17;;;;;;;-19.84;59.97;99949.00;4900548;29;20045;-70
2024/01/13 05:42:52;;;;;;;28.30;12.70;;;;;;;-19.77;60.52;99956.41;4896623;29;20139;-71
2024/01/13 05:45:21;;;;;;;9.67;5.63;;;;;;;-20.06;59.22;99946.59;4905803;29;20052;-72
2024/01/13 05:47:47;;;;;;;7.50;2.67;;;;;;;-20.18;59.81;99930.34;4896339;29;20044;-72
2024/01/13 05:50:13;;;;;;;5.40;2.73;;;;;;;-20.06;59.90;99951.56;4912620;29;20227;-73
2024/01/13 05:52:39;;;;;;;8.67;3.13;;;;;;;-20.15;59.18;99950.50;4912659;29;20403;-72
2024/01/13 05:55:11;;;;;;;7.03;2.70;;;;;;;-20.25;59.91;99943.63;4897801;29;20047;-71
2024/01/13 05:57:40;;;;;;;6.00;1.83;;;;;;;-19.94;60.04;99956.13;4911055;29;20040;-70
2024/01/13 06:00:09;;;;;;;4.60;1.70;;;;;;;-19.28;60.23;99965.06;4911385;29;20529;-70
2024/01/13 06:02:35;;;;;;;9.03;3.87;;;;;;;-18.62;60.07;99968.88;4912787;29;20100;-73
2024/01/13 06:05:06;;;;;;;7.97;3.33;;;;;;;-18.03;60.02;99947.81;4897206;29;20056;-71
2024/01/13 06:07:39;;;;;;;8.20;3.97;;;;;;;-17.60;59.71;99911.59;4891926;29;20063;-71
2024/01/13 06:10:09;;;;;;;11.50;4.37;;;;;;;-17.02;59.87;99941.56;4911410;29;20044;-72
2024/01/13 06:12:34;;;;;;;10.83;4.07;;;;;;;-16.36;59.38;99912.41;4912956;29;20134;-71
2024/01/13 06:15:04;;;;;;;14.70;3.97;;;;;;;-16.04;59.20;99897.97;4900293;29;20211;-71
2024/01/13 06:17:30;;;;;;;9.70;4.03;;;;;;;-15.26;58.41;99929.53;4911049;29;20270;-72
2024/01/13 06:19:57;;;;;;;17.80;4.27;;;;;;;-15.07;58.72;99861.31;4912792;29;20055;-69
2024/01/13 06:22:23;;;;;;;9.63;3.87;;;;;;;-14.58;59.36;99820.84;4895759;29;20169;-73
2024/01/13 06:24:53;;;;;;;12.87;5.50;;;;;;;-13.12;59.60;99928.69;4909930;29;20044;-72
2024/01/13 06:27:19;;;;;;;18.60;4.87;;;;;;;-12.58;59.57;99889.78;4896664;29;20047;-72
2024/01/13 06:29:47;;;;;;;15.27;4.43;;;;;;;-11.67;58.86;99923.97;4913376;29;20054;-72
2024/01/13 06:32:13;;;;;;;16.07;5.43;;;;;;;-11.06;58.60;99912.03;4912751;29;20047;-73
2024/01/13 06:34:39;;;;;;;12.60;5.33;;;;;;;-10.83;57.59;99893.75;4925553;29;20135;-70
2024/01/13 06:37:05;;;;;;;14.73;6.10;;;;;;;-10.26;57.72;99931.53;4909313;29;20045;-71
2024/01/13 06:39:35;;;;;;;16.10;6.40;;;;;;;-10.14;57.03;99907.28;4885221;29;20107;-72
2024/01/13 06:42:06;;;;;;;17.77;7.73;;;;;;;-9.74;56.38;99935.44;4910869;29;20058;-70
2024/01/13 06:44:35;;;;;;;19.60;7.70;;;;;;;-9.66;55.07;99932.59;4883613;29;20055;-72
2024/01/13 06:47:06;;;;;;;19.10;7.97;;;;;;;-9.45;56.45;99872.78;4918728;29;20048;-75
2024/01/13 06:49:40;;;;;;;18.55;6.75;;;;;;;-8.82;56.08;99867.16;4905602;29;20048;-72
2024/01/13 06:52:17;;;;;;;18.23;7.07;;;;;;;-7.45;56.64;99930.13;4905473;29;20063;-68
2024/01/13 06:54:43;;;;;;;27.20;9.60;;;;;;;-6.31;55.79;99955.78;4904862;29;20194;-69
2024/01/13 06:57:09;;;;;;;20.45;9.38;;;;;;;-5.86;56.11;99863.75;4890763;29;20046;-68
2024/01/13 06:59:35;;;;;;;30.30;12.38;;;;;;;-4.41;55.68;99936.88;4905126;29;20047;-72
2024/01/13 07:02:01;;;;;;;23.98;11.00;;;;;;;-3.70;55.42;99921.88;4874701;29;20652;-73
2024/01/13 07:04:28;;;;;;;24.05;9.88;;;;;;;-2.85;54.12;99940.38;4890232;29;20055;-72
2024/01/13 07:06:54;;;;;;;22.10;9.00;;;;;;;-2.42;53.60;99948.38;4921126;29;20854;-72
2024/01/13 07:09:20;;;;;;;20.98;9.82;;;;;;;-2.47;52.15;99888.66;4893413;29;20069;-71
2024/01/13 07:11:49;;;;;;;25.08;9.38;;;;;;;-1.77;52.34;99944.38;4922973;29;20418;-74
2024/01/13 07:14:15;;;;;;;22.42;11.25;;;;;;;-1.94;51.78;99885.88;4906000;29;20036;-75
2024/01/13 07:16:41;;;;;;;25.55;10.93;;;;;;;-1.71;51.58;99886.81;4907186;29;20048;-78
2024/01/13 07:19:07;;;;;;;23.63;11.18;;;;;;;-1.30;50.77;99922.53;4910999;29;20046;-82
2024/01/13 07:21:33;;;;;;;30.85;11.55;;;;;;;-1.06;50.23;99886.03;4909502;29;20130;-81
2024/01/13 07:24:00;;;;;;;27.65;12.02;;;;;;;-0.74;49.96;99949.44;4905516;29;20051;-77
2024/01/13 07:26:26;;;;;;;31.48;12.38;;;;;;;-1.30;49.40;99950.63;4894295;29;20050;-75
2024/01/13 07:28:52;;;;;;;26.25;12.25;;;;;;;-2.35;48.86;99934.22;4907840;29;20070;-73
2024/01/13 07:31:18;;;;;;;32.35;13.55;;;;;;;-2.84;49.10;99939.59;4907357;29;20063;-74
2024/01/13 07:33:44;;;;;;;30.98;14.27;;;;;;;-3.44;48.58;99976.63;4892240;29;20138;-75
2024/01/13 07:36:10;;;;;;;30.90;14.60;;;;;;;-4.14;49.44;99975.59;4891541;29;20044;-79
2024/01/13 07:38:36;;;;;;;30.73;13.93;;;;;;;-5.21;49.04;99928.31;4890358;29;20059;-79
2024/01/13 07:41:02;;;;;;;34.85;15.25;;;;;;;-4.43;50.22;99952.06;4894058;29;20047;-78
2024/01/13 07:43:28;;;;;;;31.73;14.43;;;;;;;-2.53;50.33;99946.13;4903893;29;20056;-76
2024/01/13 07:45:54;;;;;;;29.00;14.07;;;;;;;-1.63;49.75;99945.84;4907195;29;20047;-76
2024/01/13 07:48:20;;;;;;;30.23;14.15;;;;;;;-2.43;49.05;99885.44;4905498;29;20046;-78
2024/01/13 07:50:48;;;;;;;30.60;13.43;;;;;;;-2.96;48.62;99947.50;4922329;29;20059;-74
2024/01/13 07:53:14;;;;;;;30.95;14.15;;;;;;;-3.00;48.87;100006.78;4919089;29;20051;-75
2024/01/13 07:55:41;;;;;;;25.42;11.68;;;;;;;-3.11;48.80;99999.47;4888768;29;20055;-79
2024/01/13 07:58:07;;;;;;;23.90;10.85;;;;;;;-3.57;49.22;100009.88;4923314;29;20047;-78
2024/01/13 08:00:33;;;;;;;21.60;10.73;;;;;;;-4.11;48.73;99985.06;4892360;29;20078;-77
2024/01/13 08:02:59;;;;;;;23.20;10.38;;;;;;;-4.39;48.65;99998.84;4879573;29;20577;-78
2024/01/13 08:05:25;;;;;;;20.85;8.95;;;;;;;-4.50;48.90;100004.97;4921588;29;20135;-76
2024/01/13 08:07:51;;;;;;;20.65;9.65;;;;;;;-4.69;48.99;99996.34;4892495;29;20468;-76
2024/01/13 08:10:18;;;;;;;21.60;9.38;;;;;;;-3.91;50.08;99988.66;4893622;29;20138;-78
2024/01/13 08:12:45;;;;;;;17.10;8.25;;;;;;;-1.94;50.49;99995.56;4906274;29;20039;-74
2024/01/13 08:15:11;;;;;;;23.50;8.82;;;;;;;-0.34;49.22;99956.97;4926282;29;20044;-74
2024/01/13 08:17:37;;;;;;;13.65;7.65;;;;;;;1.05;48.16;99967.69;4893755;29;20537;-73
2024/01/13 08:20:04;;;;;;;18.13;9.73;;;;;;;1.94;47.65;99933.63;4911029;29;20040;-74
2024/01/13 08:22:31;;;;;;;22.40;10.63;;;;;;;2.90;47.20;99950.69;4893847;29;20725;-76
2024/01/13 08:24:57;;;;;;;24.50;12.50;;;;;;;3.53;45.56;99968.44;4907671;29;20095;-75
2024/01/13 08:27:23;;;;;;;20.52;11.18;;;;;;;3.97;45.29;99953.09;4910275;29;20530;-75
2024/01/13 08:29:49;;;;;;;20.58;11.13;;;;;;;4.35;45.86;99906.56;4896426;29;20067;-75
2024/01/13 08:32:17;;;;;;;20.42;10.70;;;;;;;5.34;45.51;99915.03;4909335;29;20043;-75
2024/01/13 08:34:43;;;;;;;20.95;9.20;;;;;;;6.08;44.98;99932.34;4927316;29;20048;-77
2024/01/13 08:37:09;;;;;;;20.83;9.85;;;;;;;6.80;44.79;99941.69;4890378;29;20035;-76
2024/01/13 08:39:36;;;;;;;18.63;8.98;;;;;;;7.46;43.97;99949.94;4876474;29;20111;-74
2024/01/13 08:42:02;;;;;;;18.58;8.88;;;;;;;7.96;43.65;99925.16;4909102;29;20036;-75
2024/01/13 08:44:29;;;;;;;19.13;10.93;;;;;;;8.86;42.68;99960.84;4881862;29;20131;-71
2024/01/13 08:46:54;;;;;;;22.25;11.27;;;;;;;9.50;42.09;99954.72;4910246;29;20179;-74
2024/01/13 08:49:21;;;;;;;18.90;10.50;;;;;;;10.13;41.09;99938.94;4885448;29;20458;-73
2024/01/13 08:51:47;;;;;;;16.63;9.38;;;;;;;10.51;40.34;99923.13;4887771;29;20036;-75
2024/01/13 08:54:13;;;;;;;17.13;9.70;;;;;;;11.12;40.66;99933.97;4897468;29;20061;-77
2024/01/13 08:56:39;;;;;;;18.48;9.65;;;;;;;11.62;39.81;99911.75;4893143;29;20522;-74
2024/01/13 08:59:05;;;;;;;20.42;9.65;;;;;;;12.10;39.51;99905.97;4882839;29;20136;-74
2024/01/13 09:01:32;;;;;;;21.45;9.65;;;;;;;12.81;38.97;99865.75;4880658;29;20103;-76
2024/01/13 09:03:58;;;;;;;20.08;10.40;;;;;;;13.27;37.65;99924.16;4887502;29;20054;-75
2024/01/13 09:06:26;;;;;;;15.98;9.73;;;;;;;13.01;36.79;99925.50;4912455;29;20040;-76
2024/01/13 09:08:52;;;;;;;16.95;9.75;;;;;;;12.63;36.86;99891.28;4885972;29;20035;-76
2024/01/13 09:11:21;;;;;;;17.60;9.13;;;;;;;12.18;36.44;99884.09;4896776;29;20494;-76
2024/01/13 09:13:47;;;;;;;16.08;10.25;;;;;;;11.84;35.91;99876.72;4894778;29;20141;-81
2024/01/13 09:16:13;;;;;;;17.35;10.77;;;;;;;11.72;35.69;99921.16;4893268;29;20047;-74
2024/01/13 09:18:39;;;;;;;17.35;10.68;;;;;;;11.24;36.04;99835.72;4909824;29;20428;-72
2024/01/13 09:21:05;;;;;;;21.85;9.95;;;;;;;12.15;36.28;99907.63;4925482;29;20500;-72
2024/01/13 09:23:35;;;;;;;20.92;9.48;;;;;;;12.71;35.77;99909.44;4893299;29;20043;-73
2024/01/13 09:26:04;;;;;;;12.27;7.05;;;;;;;12.81;34.74;99852.69;4925639;29;20075;-73
2024/01/13 09:28:30;;;;;;;12.85;7.10;;;;;;;12.99;34.41;99916.81;4908523;29;20039;-72
2024/01/13 09:30:56;;;;;;;13.95;7.40;;;;;;;12.10;33.86;99913.78;4908573;29;20052;-72
2024/01/13 09:33:24;;;;;;;13.07;7.63;;;;;;;10.82;33.49;99842.22;4926678;29;20069;-71
2024/01/13 09:35:50;;;;;;;12.93;8.02;;;;;;;10.35;33.89;99844.31;4891881;29;20044;-71
2024/01/13 09:38:16;;;;;;;14.50;7.55;;;;;;;10.12;33.47;99851.41;4892079;29;20130;-71
2024/01/13 09:40:42;;;;;;;14.30;7.63;;;;;;;10.20;33.78;99862.59;4909237;29;20814;-71
2024/01/13 09:43:21;;;;;;;14.15;7.82;;;;;;;10.08;33.67;99843.63;4900434;29;20035;-72
2024/01/13 09:45:51;;;;;;;15.55;8.32;;;;;;;10.42;34.54;99906.72;4911996;29;20147;-74
2024/01/13 09:48:19;;;;;;;18.67;9.98;;;;;;;9.90;33.20;99875.78;4923845;29;20542;-70
2024/01/13 09:50:53;;;;;;;21.08;11.20;;;;;;;9.21;33.88;99829.28;4908990;29;21659;-71
2024/01/13 09:53:30;;;;;;;22.60;11.88;;;;;;;9.58;34.00;99914.88;4925923;29;20051;-69
2024/01/13 09:56:03;;;;;;;25.70;16.35;;;;;;;9.30;34.33;99857.81;4909937;29;20051;-70
2024/01/13 09:58:30;;;;;;;28.65;15.57;;;;;;;9.23;34.26;99882.94;4882127;29;20040;-68
2024/01/13 10:00:59;;;;;;;29.75;15.93;;;;;;;8.84;34.14;99900.28;4908236;29;20087;-70
2024/01/13 10:03:29;;;;;;;30.25;15.88;;;;;;;8.18;33.74;99824.13;4894978;29;20051;-74
2024/01/13 10:06:07;;;;;;;30.88;17.27;;;;;;;7.80;33.74;99774.00;4881652;29;20526;-73
2024/01/13 10:08:33;;;;;;;32.17;17.55;;;;;;;8.05;34.62;99841.41;4880100;29;20064;-70
2024/01/13 10:11:00;;;;;;;27.08;15.40;;;;;;;7.84;34.78;99816.28;4925557;29;20044;-70
2024/01/13 10:13:27;;;;;;;30.52;15.90;;;;;;;8.23;34.34;99902.78;4894301;29;20039;-72
2024/01/13 10:15:53;;;;;;;26.00;15.00;;;;;;;7.64;35.04;99842.13;4897222;29;20040;-72
2024/01/13 10:18:25;;;;;;;27.60;14.63;;;;;;;5.59;34.34;99881.81;4927895;29;20071;-69
2024/01/13 10:20:51;;;;;;;28.45;14.70;;;;;;;3.29;36.06;99877.88;4885012;29;20122;-77
2024/01/13 10:23:17;;;;;;;26.55;13.68;;;;;;;1.54;37.38;99888.88;4898497;29;20047;-68
2024/01/13 10:25:44;;;;;;;25.92;13.32;;;;;;;0.22;38.21;99910.31;4912423;29;20044;-66
2024/01/13 10:28:10;;;;;;;31.10;14.15;;;;;;;-1.04;39.15;99889.53;4928563;29;20164;-64
2024/01/13 10:30:36;;;;;;;25.48;13.00;;;;;;;-1.91;40.56;99910.63;4910788;29;20054;-66
2024/01/13 10:33:03;;;;;;;25.00;12.60;;;;;;;-3.00;40.14;99893.03;4910160;29;20514;-67
2024/01/13 10:35:30;;;;;;;27.17;12.02;;;;;;;-3.83;41.43;99882.22;4927840;29;20051;-67
2024/01/13 10:37:59;;;;;;;27.05;11.73;;;;;;;-4.31;41.97;99933.16;4928057;29;20049;-70
2024/01/13 10:40:30;;;;;;;28.48;12.68;;;;;;;-4.94;42.92;99901.03;4905366;29;20463;-75
2024/01/13 10:43:01;;;;;;;27.63;12.13;;;;;;;-5.10;43.57;99954.28;4892785;29;20044;-72
2024/01/13 10:45:27;;;;;;;26.50;12.57;;;;;;;-5.54;43.96;99943.38;4909846;29;20111;-72
2024/01/13 10:48:04;;;;;;;27.63;11.35;;;;;;;-6.48;43.89;99861.03;4884869;29;20066;-72
2024/01/13 10:50:30;;;;;;;28.98;11.57;;;;;;;-6.56;44.38;99928.94;4927930;29;20047;-74
2024/01/13 10:53:17;;;;;;;27.00;12.15;;;;;;;-6.79;44.99;99937.66;4929022;29;20040;-74
2024/01/13 10:55:43;;;;;;;26.30;11.65;;;;;;;-7.36;45.30;99894.44;4913028;29;20577;-74
2024/01/13 10:58:10;;;;;;;29.30;11.32;;;;;;;-7.40;45.31;99932.97;4894435;29;20130;-70
2024/01/13 11:00:37;;;;;;;27.45;11.65;;;;;;;-7.77;46.03;99897.66;4914378;29;20039;-71
2024/01/13 11:03:04;;;;;;;27.80;11.07;;;;;;;-8.23;46.05;99877.81;4910956;29;20086;-72
2024/01/13 11:05:32;;;;;;;29.98;12.45;;;;;;;-8.30;46.16;99929.56;4926001;29;20063;-69
2024/01/13 11:07:59;;;;;;;27.08;12.05;;;;;;;-8.68;46.68;99916.06;4898875;29;20054;-72
2024/01/13 11:10:34;;;;;;;24.85;13.38;;;;;;;-9.40;46.89;99844.66;4898591;29;20106;-71
2024/01/13 11:13:37;;;;;;;31.10;13.18;;;;;;;-9.19;47.29;99925.09;4891685;29;20443;-68
2024/01/13 11:16:11;;;;;;;22.65;10.77;;;;;;;-9.35;48.05;99910.50;4878210;29;20066;-69
2024/01/13 11:18:38;;;;;;;26.03;10.83;;;;;;;-9.50;48.44;99912.78;4895448;29;20516;-68
2024/01/13 11:21:08;;;;;;;26.17;10.57;;;;;;;-9.69;48.36;99925.69;4925573;29;20046;-69
2024/01/13 11:23:56;;;;;;;21.73;10.57;;;;;;;-9.58;47.93;99962.63;4907604;29;20071;-71